sensor_id;sensor_type;location;lat;lon;timestamp;pressure;altitude;pressure_sealevel;temperature;humidity
35878;BME280;21982;49.804;24.072;2023-05-22T00:01:11;97503.03;;;13.56;44.71
35878;BME280;21982;49.804;24.072;2023-05-22T00:03:39;97522.09;;;13.66;44.64
35878;BME280;21982;49.804;24.072;2023-05-22T00:06:05;97570.44;;;13.96;45.06
35878;BME280;21982;49.804;24.072;2023-05-22T00:08:35;97493.00;;;13.45;44.96
35878;BME280;21982;49.804;24.072;2023-05-22T00:11:00;97518.38;;;13.60;45.06
35878;BME280;21982;49.804;24.072;2023-05-22T00:13:26;97504.25;;;13.53;44.74
35878;BME280;21982;49.804;24.072;2023-05-22T00:15:52;97566.97;;;13.95;44.99
35878;BME280;21982;49.804;24.072;2023-05-22T00:18:17;97567.97;;;13.94;45.15
35878;BME280;21982;49.804;24.072;2023-05-22T00:20:43;97564.09;;;13.90;45.00
35878;BME280;21982;49.804;24.072;2023-05-22T00:23:11;97404.03;;;12.93;45.01
35878;BME280;21982;49.804;24.072;2023-05-22T00:25:36;97564.72;;;13.86;45.35
35878;BME280;21982;49.804;24.072;2023-05-22T00:28:02;97556.94;;;13.84;45.24
35878;BME280;21982;49.804;24.072;2023-05-22T00:30:28;97400.34;;;12.87;45.33
35878;BME280;21982;49.804;24.072;2023-05-22T00:32:54;97482.94;;;13.33;45.32
35878;BME280;21982;49.804;24.072;2023-05-22T00:35:20;97556.91;;;13.78;45.59
35878;BME280;21982;49.804;24.072;2023-05-22T00:37:46;97541.72;;;13.65;45.68
35878;BME280;21982;49.804;24.072;2023-05-22T00:40:12;97522.88;;;13.47;45.59
35878;BME280;21982;49.804;24.072;2023-05-22T00:42:42;97450.72;;;13.08;45.50
35878;BME280;21982;49.804;24.072;2023-05-22T00:45:12;97565.28;;;13.68;45.63
35878;BME280;21982;49.804;24.072;2023-05-22T00:47:38;97519.56;;;13.38;45.89
35878;BME280;21982;49.804;24.072;2023-05-22T00:50:05;97481.84;;;13.15;45.92
35878;BME280;21982;49.804;24.072;2023-05-22T00:52:33;97505.41;;;13.31;45.64
35878;BME280;21982;49.804;24.072;2023-05-22T00:54:59;97530.63;;;13.41;46.10
35878;BME280;21982;49.804;24.072;2023-05-22T00:57:25;97515.00;;;13.25;46.02
35878;BME280;21982;49.804;24.072;2023-05-22T00:59:51;97558.28;;;13.47;46.13
35878;BME280;21982;49.804;24.072;2023-05-22T01:02:16;97556.22;;;13.43;46.30
35878;BME280;21982;49.804;24.072;2023-05-22T01:04:45;97554.16;;;13.45;46.60
35878;BME280;21982;49.804;24.072;2023-05-22T01:07:14;97528.91;;;13.21;46.22
35878;BME280;21982;49.804;24.072;2023-05-22T01:09:41;97546.38;;;13.36;46.20
35878;BME280;21982;49.804;24.072;2023-05-22T01:17:30;97548.06;;;13.09;45.75
35878;BME280;21982;49.804;24.072;2023-05-22T01:31:07;97548.13;;;13.16;46.97
35878;BME280;21982;49.804;24.072;2023-05-22T01:33:41;97551.38;;;13.18;47.02
35878;BME280;21982;49.804;24.072;2023-05-22T01:36:09;97546.03;;;13.12;47.12
35878;BME280;21982;49.804;24.072;2023-05-22T01:38:37;97549.91;;;13.09;47.06
35878;BME280;21982;49.804;24.072;2023-05-22T01:41:04;97497.41;;;12.77;47.35
35878;BME280;21982;49.804;24.072;2023-05-22T01:43:30;97548.03;;;13.03;47.53
35878;BME280;21982;49.804;24.072;2023-05-22T01:45:55;97546.78;;;12.99;47.61
35878;BME280;21982;49.804;24.072;2023-05-22T01:48:21;97529.94;;;12.85;47.80
35878;BME280;21982;49.804;24.072;2023-05-22T01:50:50;97533.66;;;12.91;47.61
35878;BME280;21982;49.804;24.072;2023-05-22T01:56:09;97538.78;;;12.92;47.67
35878;BME280;21982;49.804;24.072;2023-05-22T01:58:48;97484.38;;;12.47;47.64
35878;BME280;21982;49.804;24.072;2023-05-22T02:01:18;97544.66;;;12.81;48.06
35878;BME280;21982;49.804;24.072;2023-05-22T02:03:45;97549.16;;;12.81;48.00
35878;BME280;21982;49.804;24.072;2023-05-22T02:06:13;97565.69;;;12.83;47.99
35878;BME280;21982;49.804;24.072;2023-05-22T02:08:40;97526.56;;;12.63;48.34
35878;BME280;21982;49.804;24.072;2023-05-22T02:11:09;97546.09;;;12.84;48.42
35878;BME280;21982;49.804;24.072;2023-05-22T02:13:35;97525.78;;;12.69;48.09
35878;BME280;21982;49.804;24.072;2023-05-22T02:16:02;97520.63;;;12.61;48.41
35878;BME280;21982;49.804;24.072;2023-05-22T02:18:28;97545.06;;;12.78;48.42
35878;BME280;21982;49.804;24.072;2023-05-22T02:20:58;97538.13;;;12.84;48.30
35878;BME280;21982;49.804;24.072;2023-05-22T02:23:24;97462.84;;;12.35;48.69
35878;BME280;21982;49.804;24.072;2023-05-22T02:25:50;97535.06;;;12.80;48.49
35878;BME280;21982;49.804;24.072;2023-05-22T02:28:15;97510.16;;;12.53;48.41
35878;BME280;21982;49.804;24.072;2023-05-22T02:30:41;97506.31;;;12.62;48.56
35878;BME280;21982;49.804;24.072;2023-05-22T02:33:06;97457.50;;;12.29;48.27
35878;BME280;21982;49.804;24.072;2023-05-22T02:35:33;97535.88;;;12.81;48.54
35878;BME280;21982;49.804;24.072;2023-05-22T02:37:59;97533.00;;;12.82;48.48
35878;BME280;21982;49.804;24.072;2023-05-22T02:40:24;97504.69;;;12.61;48.36
35878;BME280;21982;49.804;24.072;2023-05-22T02:42:49;97540.78;;;12.84;48.30
35878;BME280;21982;49.804;24.072;2023-05-22T02:45:15;97535.06;;;12.87;48.46
35878;BME280;21982;49.804;24.072;2023-05-22T02:47:41;97532.41;;;12.87;48.44
35878;BME280;21982;49.804;24.072;2023-05-22T02:50:06;97470.88;;;12.49;48.38
35878;BME280;21982;49.804;24.072;2023-05-22T02:52:32;97474.78;;;12.53;48.62
35878;BME280;21982;49.804;24.072;2023-05-22T02:54:59;97533.66;;;12.91;48.41
35878;BME280;21982;49.804;24.072;2023-05-22T02:57:25;97490.97;;;12.58;48.75
35878;BME280;21982;49.804;24.072;2023-05-22T02:59:50;97492.66;;;12.65;48.77
35878;BME280;21982;49.804;24.072;2023-05-22T03:02:16;97528.16;;;12.92;48.49
35878;BME280;21982;49.804;24.072;2023-05-22T03:04:42;97501.72;;;12.78;48.65
35878;BME280;21982;49.804;24.072;2023-05-22T03:07:08;97521.78;;;12.87;48.55
35878;BME280;21982;49.804;24.072;2023-05-22T03:09:34;97533.88;;;12.96;48.81
35878;BME280;21982;49.804;24.072;2023-05-22T03:12:00;97450.41;;;12.36;48.94
35878;BME280;21982;49.804;24.072;2023-05-22T03:14:25;97476.44;;;12.54;48.92
35878;BME280;21982;49.804;24.072;2023-05-22T03:16:50;97475.38;;;12.48;48.75
35878;BME280;21982;49.804;24.072;2023-05-22T03:19:18;97519.69;;;12.75;49.01
35878;BME280;21982;49.804;24.072;2023-05-22T03:21:44;97541.41;;;12.86;49.22
35878;BME280;21982;49.804;24.072;2023-05-22T03:24:09;97476.81;;;12.44;49.26
35878;BME280;21982;49.804;24.072;2023-05-22T03:26:37;97530.97;;;12.84;49.13
35878;BME280;21982;49.804;24.072;2023-05-22T03:29:02;97521.09;;;12.71;49.16
35878;BME280;21982;49.804;24.072;2023-05-22T03:31:28;97546.09;;;12.84;49.35
35878;BME280;21982;49.804;24.072;2023-05-22T03:33:55;97507.72;;;12.58;49.20
35878;BME280;21982;49.804;24.072;2023-05-22T03:38:57;97549.59;;;12.91;49.29
35878;BME280;21982;49.804;24.072;2023-05-22T03:41:22;97524.00;;;12.77;49.20
35878;BME280;21982;49.804;24.072;2023-05-22T03:43:48;97474.59;;;12.54;49.25
35878;BME280;21982;49.804;24.072;2023-05-22T03:46:13;97529.75;;;12.87;49.18
35878;BME280;21982;49.804;24.072;2023-05-22T03:48:38;97548.00;;;12.96;49.41
35878;BME280;21982;49.804;24.072;2023-05-22T03:51:04;97477.88;;;12.56;49.46
35878;BME280;21982;49.804;24.072;2023-05-22T03:53:29;97560.94;;;13.06;49.16
35878;BME280;21982;49.804;24.072;2023-05-22T03:55:55;97530.66;;;13.00;49.58
35878;BME280;21982;49.804;24.072;2023-05-22T03:58:22;97527.41;;;13.05;49.60
35878;BME280;21982;49.804;24.072;2023-05-22T04:00:49;97546.06;;;13.18;49.20
35878;BME280;21982;49.804;24.072;2023-05-22T04:03:16;97540.78;;;13.25;49.31
35878;BME280;21982;49.804;24.072;2023-05-22T04:05:44;97549.19;;;13.28;49.42
35878;BME280;21982;49.804;24.072;2023-05-22T04:08:10;97510.03;;;13.09;49.41
35878;BME280;21982;49.804;24.072;2023-05-22T04:10:35;97527.47;;;13.18;49.49
35878;BME280;21982;49.804;24.072;2023-05-22T04:13:05;97521.75;;;13.21;49.39
35878;BME280;21982;49.804;24.072;2023-05-22T04:15:31;97501.03;;;13.10;49.65
35878;BME280;21982;49.804;24.072;2023-05-22T04:17:59;97486.72;;;13.11;49.41
35878;BME280;21982;49.804;24.072;2023-05-22T04:20:25;97461.72;;;12.99;49.45
35878;BME280;21982;49.804;24.072;2023-05-22T04:22:50;97470.78;;;13.11;49.63
35878;BME280;21982;49.804;24.072;2023-05-22T04:25:16;97483.50;;;13.22;49.53
35878;BME280;21982;49.804;24.072;2023-05-22T04:27:41;97463.06;;;13.16;49.32
35878;BME280;21982;49.804;24.072;2023-05-22T04:30:07;97461.66;;;13.33;49.21
35878;BME280;21982;49.804;24.072;2023-05-22T04:32:33;97535.44;;;13.86;49.13
35878;BME280;21982;49.804;24.072;2023-05-22T04:35:00;97526.41;;;13.87;49.01
35878;BME280;21982;49.804;24.072;2023-05-22T04:37:26;97556.97;;;14.11;49.08
35878;BME280;21982;49.804;24.072;2023-05-22T04:39:53;97460.69;;;13.74;48.70
35878;BME280;21982;49.804;24.072;2023-05-22T04:42:22;97472.97;;;13.95;48.36
35878;BME280;21982;49.804;24.072;2023-05-22T04:44:49;97513.53;;;14.17;48.48
35878;BME280;21982;49.804;24.072;2023-05-22T04:47:17;97497.94;;;14.40;48.23
35878;BME280;21982;49.804;24.072;2023-05-22T04:49:43;97500.41;;;14.48;47.72
35878;BME280;21982;49.804;24.072;2023-05-22T04:52:10;97544.63;;;14.82;47.90
35878;BME280;21982;49.804;24.072;2023-05-22T04:54:36;97400.88;;;14.09;47.49
35878;BME280;21982;49.804;24.072;2023-05-22T04:57:03;97542.88;;;15.14;47.25
35878;BME280;21982;49.804;24.072;2023-05-22T04:59:30;97545.94;;;15.24;47.58
35878;BME280;21982;49.804;24.072;2023-05-22T05:01:58;97548.09;;;15.40;47.34
35878;BME280;21982;49.804;24.072;2023-05-22T05:04:23;97444.47;;;14.93;46.86
35878;BME280;21982;49.804;24.072;2023-05-22T05:06:48;97504.50;;;15.60;46.14
35878;BME280;21982;49.804;24.072;2023-05-22T05:09:14;97556.31;;;16.15;45.92
35878;BME280;21982;49.804;24.072;2023-05-22T05:11:39;97553.81;;;16.45;45.41
35878;BME280;21982;49.804;24.072;2023-05-22T05:14:05;97551.81;;;16.84;45.05
35878;BME280;21982;49.804;24.072;2023-05-22T05:16:30;97464.00;;;16.81;44.01
35878;BME280;21982;49.804;24.072;2023-05-22T05:18:55;97558.00;;;17.87;43.15
35878;BME280;21982;49.804;24.072;2023-05-22T05:21:22;97376.19;;;16.96;42.38
35878;BME280;21982;49.804;24.072;2023-05-22T05:23:51;97557.34;;;18.68;41.75
35878;BME280;21982;49.804;24.072;2023-05-22T05:26:17;97449.09;;;18.39;40.87
35878;BME280;21982;49.804;24.072;2023-05-22T05:28:43;97557.19;;;19.50;40.20
35878;BME280;21982;49.804;24.072;2023-05-22T05:31:09;97530.00;;;19.58;39.73
35878;BME280;21982;49.804;24.072;2023-05-22T05:33:35;97554.53;;;20.07;39.30
35878;BME280;21982;49.804;24.072;2023-05-22T05:36:01;97532.84;;;20.14;38.72
35878;BME280;21982;49.804;24.072;2023-05-22T05:38:28;97560.31;;;20.44;38.40
35878;BME280;21982;49.804;24.072;2023-05-22T05:40:53;97537.78;;;20.67;37.84
35878;BME280;21982;49.804;24.072;2023-05-22T05:43:19;97563.78;;;21.33;37.56
35878;BME280;21982;49.804;24.072;2023-05-22T05:45:45;97557.72;;;21.70;36.72
35878;BME280;21982;49.804;24.072;2023-05-22T05:48:10;97518.47;;;21.79;36.06
35878;BME280;21982;49.804;24.072;2023-05-22T05:50:36;97506.47;;;21.92;35.94
35878;BME280;21982;49.804;24.072;2023-05-22T05:53:02;97541.16;;;22.37;35.19
35878;BME280;21982;49.804;24.072;2023-05-22T05:55:27;97483.88;;;22.30;34.77
35878;BME280;21982;49.804;24.072;2023-05-22T05:57:53;97568.63;;;23.03;34.57
35878;BME280;21982;49.804;24.072;2023-05-22T06:00:20;97553.03;;;23.15;34.20
35878;BME280;21982;49.804;24.072;2023-05-22T06:02:46;97469.72;;;22.92;33.67
35878;BME280;21982;49.804;24.072;2023-05-22T06:05:13;97571.47;;;23.91;33.13
35878;BME280;21982;49.804;24.072;2023-05-22T06:07:41;97564.75;;;24.14;32.83
35878;BME280;21982;49.804;24.072;2023-05-22T06:10:09;97537.66;;;24.03;32.35
35878;BME280;21982;49.804;24.072;2023-05-22T06:12:38;97569.09;;;24.60;31.97
35878;BME280;21982;49.804;24.072;2023-05-22T06:15:13;97530.06;;;25.07;31.16
35878;BME280;21982;49.804;24.072;2023-05-22T06:17:39;97555.44;;;25.36;30.72
35878;BME280;21982;49.804;24.072;2023-05-22T06:20:05;97540.22;;;25.51;30.17
35878;BME280;21982;49.804;24.072;2023-05-22T06:22:31;97564.59;;;25.56;29.84
35878;BME280;21982;49.804;24.072;2023-05-22T06:24:56;97482.28;;;25.31;29.81
35878;BME280;21982;49.804;24.072;2023-05-22T06:27:23;97568.84;;;25.82;29.47
35878;BME280;21982;49.804;24.072;2023-05-22T06:29:49;97480.72;;;25.20;29.30
35878;BME280;21982;49.804;24.072;2023-05-22T06:32:16;97570.97;;;25.90;29.41
35878;BME280;21982;49.804;24.072;2023-05-22T06:34:47;97568.09;;;26.16;29.33
35878;BME280;21982;49.804;24.072;2023-05-22T06:37:12;97500.03;;;26.07;28.68
35878;BME280;21982;49.804;24.072;2023-05-22T06:39:38;97557.91;;;26.70;28.34
35878;BME280;21982;49.804;24.072;2023-05-22T06:42:04;97566.63;;;27.01;27.94
35878;BME280;21982;49.804;24.072;2023-05-22T06:44:30;97570.78;;;26.89;27.80
35878;BME280;21982;49.804;24.072;2023-05-22T06:46:56;97570.56;;;27.14;27.60
35878;BME280;21982;49.804;24.072;2023-05-22T06:49:23;97563.84;;;27.07;27.60
35878;BME280;21982;49.804;24.072;2023-05-22T06:51:48;97466.81;;;26.54;27.53
35878;BME280;21982;49.804;24.072;2023-05-22T06:54:14;97515.09;;;26.62;27.50
35878;BME280;21982;49.804;24.072;2023-05-22T06:56:40;97480.75;;;26.09;27.43
35878;BME280;21982;49.804;24.072;2023-05-22T06:59:05;97565.41;;;26.84;27.64
35878;BME280;21982;49.804;24.072;2023-05-22T07:01:31;97533.94;;;26.78;27.52
35878;BME280;21982;49.804;24.072;2023-05-22T07:03:58;97518.22;;;26.75;27.24
35878;BME280;21982;49.804;24.072;2023-05-22T07:06:25;97412.03;;;26.47;26.89
35878;BME280;21982;49.804;24.072;2023-05-22T07:08:51;97309.03;;;25.74;26.73
35878;BME280;21982;49.804;24.072;2023-05-22T07:11:17;97381.28;;;25.94;27.03
35878;BME280;21982;49.804;24.072;2023-05-22T07:13:42;97228.16;;;25.18;27.05
35878;BME280;21982;49.804;24.072;2023-05-22T07:16:08;97554.78;;;27.64;27.12
35878;BME280;21982;49.804;24.072;2023-05-22T07:18:33;97567.47;;;27.92;26.59
35878;BME280;21982;49.804;24.072;2023-05-22T07:20:58;97498.81;;;27.77;26.41
35878;BME280;21982;49.804;24.072;2023-05-22T07:23:24;97496.69;;;27.74;26.25
35878;BME280;21982;49.804;24.072;2023-05-22T07:25:49;97539.53;;;28.06;25.90
35878;BME280;21982;49.804;24.072;2023-05-22T07:28:15;97265.25;;;26.57;26.01
35878;BME280;21982;49.804;24.072;2023-05-22T07:30:40;97424.84;;;27.75;25.29
35878;BME280;21982;49.804;24.072;2023-05-22T07:33:05;97453.66;;;28.59;25.19
35878;BME280;21982;49.804;24.072;2023-05-22T07:35:34;97545.44;;;29.38;24.29
35878;BME280;21982;49.804;24.072;2023-05-22T07:37:59;97554.28;;;28.88;24.72
35878;BME280;21982;49.804;24.072;2023-05-22T07:40:25;97411.53;;;27.73;25.12
35878;BME280;21982;49.804;24.072;2023-05-22T07:42:51;97429.69;;;28.29;24.65
35878;BME280;21982;49.804;24.072;2023-05-22T07:45:17;97541.78;;;29.15;24.37
35878;BME280;21982;49.804;24.072;2023-05-22T07:47:45;97550.78;;;29.15;25.04
35878;BME280;21982;49.804;24.072;2023-05-22T07:50:11;97565.09;;;28.93;24.28
35878;BME280;21982;49.804;24.072;2023-05-22T07:52:36;97443.75;;;28.36;24.38
35878;BME280;21982;49.804;24.072;2023-05-22T07:55:02;97536.94;;;29.39;23.49
35878;BME280;21982;49.804;24.072;2023-05-22T07:57:27;97551.41;;;29.53;23.31
35878;BME280;21982;49.804;24.072;2023-05-22T07:59:54;97522.34;;;30.21;23.34
35878;BME280;21982;49.804;24.072;2023-05-22T08:02:20;97535.28;;;30.29;22.94
35878;BME280;21982;49.804;24.072;2023-05-22T08:04:46;97474.78;;;28.67;23.30
35878;BME280;21982;49.804;24.072;2023-05-22T08:07:12;97432.19;;;27.36;24.14
35878;BME280;21982;49.804;24.072;2023-05-22T08:09:38;97474.28;;;26.38;25.26
35878;BME280;21982;49.804;24.072;2023-05-22T08:12:06;97529.50;;;27.16;25.65
35878;BME280;21982;49.804;24.072;2023-05-22T08:14:31;97527.22;;;27.47;25.41
35878;BME280;21982;49.804;24.072;2023-05-22T08:16:57;97512.19;;;27.30;25.38
35878;BME280;21982;49.804;24.072;2023-05-22T08:19:23;97528.16;;;27.13;25.21
35878;BME280;21982;49.804;24.072;2023-05-22T08:21:49;97527.41;;;27.31;25.17
35878;BME280;21982;49.804;24.072;2023-05-22T08:24:17;97438.91;;;27.63;24.62
35878;BME280;21982;49.804;24.072;2023-05-22T08:26:42;97500.00;;;28.59;23.92
35878;BME280;21982;49.804;24.072;2023-05-22T08:29:07;97432.56;;;28.38;23.94
35878;BME280;21982;49.804;24.072;2023-05-22T08:31:33;97508.59;;;28.34;23.55
35878;BME280;21982;49.804;24.072;2023-05-22T08:34:00;97502.22;;;28.06;23.80
35878;BME280;21982;49.804;24.072;2023-05-22T08:36:29;97520.88;;;28.13;24.11
35878;BME280;21982;49.804;24.072;2023-05-22T08:38:58;97517.38;;;28.77;23.49
35878;BME280;21982;49.804;24.072;2023-05-22T08:41:25;97513.03;;;29.99;22.75
35878;BME280;21982;49.804;24.072;2023-05-22T08:43:51;97503.16;;;30.79;21.38
35878;BME280;21982;49.804;24.072;2023-05-22T08:46:17;97410.22;;;29.81;21.26
35878;BME280;21982;49.804;24.072;2023-05-22T08:48:44;97501.25;;;30.35;21.31
35878;BME280;21982;49.804;24.072;2023-05-22T08:51:12;97429.50;;;29.62;21.36
35878;BME280;21982;49.804;24.072;2023-05-22T08:53:41;97501.81;;;29.87;21.79
35878;BME280;21982;49.804;24.072;2023-05-22T08:56:07;97512.81;;;30.32;21.53
35878;BME280;21982;49.804;24.072;2023-05-22T08:58:34;97501.66;;;31.04;20.99
35878;BME280;21982;49.804;24.072;2023-05-22T09:01:00;97500.97;;;31.29;20.47
35878;BME280;21982;49.804;24.072;2023-05-22T09:03:27;97504.31;;;30.87;20.61
35878;BME280;21982;49.804;24.072;2023-05-22T09:05:57;97508.38;;;31.29;20.98
35878;BME280;21982;49.804;24.072;2023-05-22T09:08:22;97516.66;;;31.55;20.57
35878;BME280;21982;49.804;24.072;2023-05-22T09:10:51;97476.47;;;31.81;20.92
35878;BME280;21982;49.804;24.072;2023-05-22T09:13:27;97436.94;;;31.56;19.76
35878;BME280;21982;49.804;24.072;2023-05-22T09:15:59;97497.59;;;30.93;21.54
35878;BME280;21982;49.804;24.072;2023-05-22T09:18:32;97305.44;;;30.22;20.44
35878;BME280;21982;49.804;24.072;2023-05-22T09:21:01;97402.00;;;30.79;20.19
35878;BME280;21982;49.804;24.072;2023-05-22T09:23:28;97360.84;;;29.69;20.43
35878;BME280;21982;49.804;24.072;2023-05-22T09:25:55;97455.97;;;30.65;20.94
35878;BME280;21982;49.804;24.072;2023-05-22T09:28:21;97489.25;;;31.38;20.06
35878;BME280;21982;49.804;24.072;2023-05-22T09:30:50;97486.78;;;31.76;20.50
35878;BME280;21982;49.804;24.072;2023-05-22T09:33:17;97430.22;;;31.88;19.82
35878;BME280;21982;49.804;24.072;2023-05-22T09:35:42;97444.56;;;32.03;19.41
35878;BME280;21982;49.804;24.072;2023-05-22T09:38:09;97483.66;;;31.60;19.48
35878;BME280;21982;49.804;24.072;2023-05-22T09:40:39;97463.47;;;30.90;19.55
35878;BME280;21982;49.804;24.072;2023-05-22T09:43:08;97473.19;;;30.65;20.41
35878;BME280;21982;49.804;24.072;2023-05-22T09:45:34;97476.00;;;31.22;19.65
35878;BME280;21982;49.804;24.072;2023-05-22T09:48:02;97458.81;;;30.91;19.63
35878;BME280;21982;49.804;24.072;2023-05-22T09:50:28;97466.38;;;30.32;20.68
35878;BME280;21982;49.804;24.072;2023-05-22T09:52:55;97329.31;;;29.85;20.30
35878;BME280;21982;49.804;24.072;2023-05-22T09:55:24;97450.44;;;31.27;19.87
35878;BME280;21982;49.804;24.072;2023-05-22T09:57:51;97461.31;;;32.10;19.62
35878;BME280;21982;49.804;24.072;2023-05-22T10:00:17;97460.31;;;32.57;18.66
35878;BME280;21982;49.804;24.072;2023-05-22T10:02:45;97458.31;;;32.67;18.90
35878;BME280;21982;49.804;24.072;2023-05-22T10:05:13;97451.97;;;32.37;18.97
35878;BME280;21982;49.804;24.072;2023-05-22T10:07:55;97381.56;;;31.42;19.17
35878;BME280;21982;49.804;24.072;2023-05-22T10:10:23;97464.06;;;31.92;18.73
35878;BME280;21982;49.804;24.072;2023-05-22T10:12:55;97469.50;;;31.66;18.72
35878;BME280;21982;49.804;24.072;2023-05-22T10:15:21;97467.44;;;31.89;18.45
35878;BME280;21982;49.804;24.072;2023-05-22T10:17:48;97466.53;;;32.84;18.45
35878;BME280;21982;49.804;24.072;2023-05-22T10:20:14;97462.50;;;33.19;17.91
35878;BME280;21982;49.804;24.072;2023-05-22T10:22:41;97433.34;;;32.59;18.21
35878;BME280;21982;49.804;24.072;2023-05-22T10:25:07;97455.84;;;31.92;18.65
35878;BME280;21982;49.804;24.072;2023-05-22T10:27:32;97466.72;;;30.61;19.22
35878;BME280;21982;49.804;24.072;2023-05-22T10:30:15;97447.06;;;31.30;19.33
35878;BME280;21982;49.804;24.072;2023-05-22T10:32:51;97464.34;;;31.65;19.06
35878;BME280;21982;49.804;24.072;2023-05-22T10:35:24;97449.06;;;30.67;19.23
35878;BME280;21982;49.804;24.072;2023-05-22T10:37:54;97393.88;;;30.57;19.60
35878;BME280;21982;49.804;24.072;2023-05-22T10:40:23;97450.75;;;31.25;19.09
35878;BME280;21982;49.804;24.072;2023-05-22T10:42:59;97457.94;;;30.73;19.54
35878;BME280;21982;49.804;24.072;2023-05-22T10:45:26;97377.09;;;30.81;19.65
35878;BME280;21982;49.804;24.072;2023-05-22T10:48:03;97422.31;;;31.44;19.10
35878;BME280;21982;49.804;24.072;2023-05-22T10:50:28;97365.72;;;29.22;20.12
35878;BME280;21982;49.804;24.072;2023-05-22T10:53:16;97439.91;;;28.37;20.98
35878;BME280;21982;49.804;24.072;2023-05-22T10:55:52;97374.63;;;28.46;21.20
35878;BME280;21982;49.804;24.072;2023-05-22T10:58:28;97421.72;;;29.92;20.50
35878;BME280;21982;49.804;24.072;2023-05-22T11:01:13;97433.63;;;31.11;19.92
35878;BME280;21982;49.804;24.072;2023-05-22T11:08:55;97341.09;;;30.17;19.45
35878;BME280;21982;49.804;24.072;2023-05-22T11:11:24;97424.50;;;30.76;19.84
35878;BME280;21982;49.804;24.072;2023-05-22T11:14:00;97421.28;;;31.22;19.28
35878;BME280;21982;49.804;24.072;2023-05-22T11:16:31;97429.56;;;31.48;18.95
35878;BME280;21982;49.804;24.072;2023-05-22T11:19:04;97429.06;;;31.38;18.95
35878;BME280;21982;49.804;24.072;2023-05-22T11:21:30;97399.13;;;31.58;19.28
35878;BME280;21982;49.804;24.072;2023-05-22T11:23:59;97151.41;;;30.31;18.79
35878;BME280;21982;49.804;24.072;2023-05-22T11:26:27;97364.03;;;31.52;18.81
35878;BME280;21982;49.804;24.072;2023-05-22T11:28:53;97323.13;;;31.47;18.86
35878;BME280;21982;49.804;24.072;2023-05-22T11:31:19;97348.66;;;32.20;18.62
35878;BME280;21982;49.804;24.072;2023-05-22T11:33:47;97348.78;;;32.32;18.08
35878;BME280;21982;49.804;24.072;2023-05-22T11:36:12;97388.13;;;32.36;18.60
35878;BME280;21982;49.804;24.072;2023-05-22T11:38:41;97381.53;;;32.67;18.37
35878;BME280;21982;49.804;24.072;2023-05-22T11:41:08;97339.53;;;32.54;18.32
35878;BME280;21982;49.804;24.072;2023-05-22T11:43:35;97389.19;;;32.52;18.45
35878;BME280;21982;49.804;24.072;2023-05-22T11:46:08;97296.22;;;31.66;18.26
35878;BME280;21982;49.804;24.072;2023-05-22T11:48:35;97406.22;;;32.03;18.38
35878;BME280;21982;49.804;24.072;2023-05-22T11:51:04;97352.72;;;32.05;18.39
35878;BME280;21982;49.804;24.072;2023-05-22T11:53:33;97399.41;;;32.35;18.22
35878;BME280;21982;49.804;24.072;2023-05-22T11:56:02;97398.00;;;32.67;18.30
35878;BME280;21982;49.804;24.072;2023-05-22T11:58:28;97394.84;;;32.47;18.43
35878;BME280;21982;49.804;24.072;2023-05-22T12:01:00;97393.63;;;32.19;18.34
35878;BME280;21982;49.804;24.072;2023-05-22T12:03:26;97378.50;;;32.21;18.36
35878;BME280;21982;49.804;24.072;2023-05-22T12:05:51;97376.44;;;32.56;18.02
35878;BME280;21982;49.804;24.072;2023-05-22T12:08:17;97377.16;;;32.83;17.90
35878;BME280;21982;49.804;24.072;2023-05-22T12:10:48;97396.09;;;32.96;18.00
35878;BME280;21982;49.804;24.072;2023-05-22T12:13:13;97270.78;;;31.74;17.85
35878;BME280;21982;49.804;24.072;2023-05-22T12:15:43;97367.75;;;32.54;17.43
35878;BME280;21982;49.804;24.072;2023-05-22T12:18:11;97390.72;;;32.24;18.06
35878;BME280;21982;49.804;24.072;2023-05-22T12:20:41;97396.91;;;31.86;17.88
35878;BME280;21982;49.804;24.072;2023-05-22T12:23:26;97388.16;;;31.41;18.30
35878;BME280;21982;49.804;24.072;2023-05-22T12:25:59;97375.47;;;31.80;18.45
35878;BME280;21982;49.804;24.072;2023-05-22T12:28:26;97270.66;;;31.36;18.26
35878;BME280;21982;49.804;24.072;2023-05-22T12:30:52;97353.09;;;31.78;18.45
35878;BME280;21982;49.804;24.072;2023-05-22T12:33:19;97376.25;;;31.63;18.42
35878;BME280;21982;49.804;24.072;2023-05-22T12:35:48;97365.78;;;31.30;18.60
35878;BME280;21982;49.804;24.072;2023-05-22T12:38:14;97337.63;;;30.64;19.03
35878;BME280;21982;49.804;24.072;2023-05-22T12:40:46;97370.66;;;30.15;18.81
35878;BME280;21982;49.804;24.072;2023-05-22T12:43:23;97290.50;;;28.44;19.57
35878;BME280;21982;49.804;24.072;2023-05-22T12:45:50;97366.22;;;27.82;20.54
35878;BME280;21982;49.804;24.072;2023-05-22T12:48:15;97352.66;;;27.63;20.94
35878;BME280;21982;49.804;24.072;2023-05-22T12:50:42;97355.53;;;27.72;20.82
35878;BME280;21982;49.804;24.072;2023-05-22T12:53:08;97334.13;;;27.65;20.91
35878;BME280;21982;49.804;24.072;2023-05-22T12:55:34;97321.69;;;27.41;20.90
35878;BME280;21982;49.804;24.072;2023-05-22T12:57:59;97355.66;;;27.43;21.24
35878;BME280;21982;49.804;24.072;2023-05-22T13:00:25;97352.94;;;27.24;21.59
35878;BME280;21982;49.804;24.072;2023-05-22T13:02:50;97347.44;;;26.87;22.04
35878;BME280;21982;49.804;24.072;2023-05-22T13:05:16;97349.91;;;26.12;22.21
35878;BME280;21982;49.804;24.072;2023-05-22T13:07:41;97267.72;;;25.19;22.89
35878;BME280;21982;49.804;24.072;2023-05-22T13:10:07;97244.09;;;24.81;23.26
35878;BME280;21982;49.804;24.072;2023-05-22T13:12:32;97303.16;;;25.28;23.08
35878;BME280;21982;49.804;24.072;2023-05-22T13:14:59;97271.34;;;24.99;23.42
35878;BME280;21982;49.804;24.072;2023-05-22T13:17:25;97239.44;;;24.91;23.31